Time;durP1;ratioP1;P1;durP2;ratioP2;P2;SDS_P1;SDS_P2;PMS_P1;PMS_P2;Temp;Humidity;BMP_temperature;BMP_pressure;BME280_temperature;BME280_humidity;BME280_pressure;Samples;Min_cycle;Max_cycle;Signal;HPM_P1;HPM_P2
2022/04/25 00:00:04;;;;;;;20.77;18.88;;;;;;;8.67;100.00;97733.34;2065856;28;20651;-75
2022/04/25 00:01:14;;;;;;;21.02;18.65;;;;;;;8.68;100.00;97732.25;2066122;28;20174;-74
2022/04/25 00:02:14;;;;;;;20.45;18.63;;;;;;;8.66;100.00;97729.13;2066447;28;20193;-75
2022/04/25 00:03:16;;;;;;;19.87;18.07;;;;;;;8.64;100.00;97726.00;2066666;28;20272;-74
2022/04/25 00:04:17;;;;;;;20.33;18.52;;;;;;;8.68;100.00;97724.25;2065768;28;20203;-74
2022/04/25 00:05:19;;;;;;;20.00;18.17;;;;;;;8.71;100.00;97723.66;2065967;28;20193;-74
2022/04/25 00:06:20;;;;;;;19.33;17.58;;;;;;;8.68;100.00;97721.59;2066032;28;20224;-74
2022/04/25 00:07:24;;;;;;;19.63;18.13;;;;;;;8.59;100.00;97732.25;2065846;28;20285;-74
2022/04/25 00:08:27;;;;;;;18.77;17.08;;;;;;;8.48;100.00;97717.75;2065822;28;20201;-74
2022/04/25 00:09:28;;;;;;;19.35;17.65;;;;;;;8.39;100.00;97723.06;2065723;28;20201;-75
2022/04/25 00:10:30;;;;;;;19.63;17.80;;;;;;;8.32;100.00;97725.38;2065954;28;20652;-75
2022/04/25 00:11:31;;;;;;;19.67;18.05;;;;;;;8.26;100.00;97718.69;2066649;28;20635;-74
2022/04/25 00:12:33;;;;;;;19.03;17.43;;;;;;;8.18;100.00;97719.47;2066416;28;20590;-74
2022/04/25 00:13:36;;;;;;;20.23;18.23;;;;;;;8.13;100.00;97720.38;2065240;28;20205;-75
2022/04/25 00:14:39;;;;;;;18.98;17.42;;;;;;;8.06;100.00;97720.06;2065904;28;20197;-75
2022/04/25 00:15:39;;;;;;;19.15;17.55;;;;;;;8.00;100.00;97720.56;2065658;28;20201;-74
2022/04/25 00:16:41;;;;;;;19.90;18.03;;;;;;;7.93;100.00;97724.44;2057661;28;20197;-74
2022/04/25 00:17:42;;;;;;;19.52;18.02;;;;;;;7.88;100.00;97724.56;2065809;28;20189;-75
2022/04/25 00:18:44;;;;;;;19.70;18.07;;;;;;;7.83;100.00;97718.66;2066443;28;20248;-75
2022/04/25 00:19:46;;;;;;;20.08;18.38;;;;;;;7.79;100.00;97715.03;2066319;28;20193;-75
2022/04/25 00:20:49;;;;;;;20.60;18.42;;;;;;;7.76;100.00;97716.44;2065371;28;20205;-75
2022/04/25 00:21:51;;;;;;;19.88;18.08;;;;;;;7.73;100.00;97727.69;2065186;28;20236;-75
2022/04/25 00:22:52;;;;;;;20.15;18.38;;;;;;;7.67;100.00;97713.00;2065602;28;20682;-75
2022/04/25 00:23:55;;;;;;;20.52;18.67;;;;;;;7.65;100.00;97723.16;2065633;28;20200;-74
2022/04/25 00:24:56;;;;;;;19.83;18.25;;;;;;;7.61;100.00;97727.50;2065569;28;20193;-75
2022/04/25 00:25:57;;;;;;;20.27;18.48;;;;;;;7.56;100.00;97719.69;2065277;28;20201;-75
2022/04/25 00:27:00;;;;;;;20.63;18.65;;;;;;;7.54;100.00;97729.81;2066005;28;20239;-74
2022/04/25 00:28:03;;;;;;;20.42;18.52;;;;;;;7.49;100.00;97725.44;2065244;28;20200;-75
2022/04/25 00:29:05;;;;;;;21.02;19.02;;;;;;;7.50;100.00;97728.88;2057827;28;20204;-74
2022/04/25 00:30:07;;;;;;;23.67;21.25;;;;;;;7.58;100.00;97736.09;2065825;28;20193;-75
2022/04/25 00:31:09;;;;;;;21.13;19.10;;;;;;;7.61;100.00;97730.94;2069561;28;20246;-75
2022/04/25 00:32:10;;;;;;;20.60;18.83;;;;;;;7.64;100.00;97729.53;2065675;28;20616;-75
2022/04/25 00:33:11;;;;;;;22.43;19.97;;;;;;;7.74;100.00;97734.56;2057512;28;20202;-75
2022/04/25 00:34:14;;;;;;;22.58;20.27;;;;;;;7.75;100.00;97735.34;2057508;28;20209;-75
2022/04/25 00:35:16;;;;;;;20.40;18.48;;;;;;;7.74;100.00;97733.78;2065935;28;20193;-75
2022/04/25 00:36:17;;;;;;;20.77;18.92;;;;;;;7.74;100.00;97726.59;2073952;28;20410;-75
2022/04/25 00:37:19;;;;;;;22.10;20.10;;;;;;;7.73;100.00;97733.00;2064938;28;20711;-75
2022/04/25 00:38:19;;;;;;;22.63;20.50;;;;;;;7.76;100.00;97729.72;2065598;28;20985;-75
2022/04/25 00:39:22;;;;;;;20.87;18.97;;;;;;;7.80;100.00;97722.69;2065600;28;20560;-75
2022/04/25 00:40:26;;;;;;;23.42;21.13;;;;;;;7.81;100.00;97723.47;2057584;28;20204;-75
2022/04/25 00:41:27;;;;;;;21.38;19.27;;;;;;;7.83;100.00;97719.44;2057734;28;20209;-75
2022/04/25 00:42:29;;;;;;;23.47;21.20;;;;;;;7.84;100.00;97722.88;2057449;28;20288;-75
2022/04/25 00:43:30;;;;;;;21.25;19.25;;;;;;;7.87;100.00;97725.69;2057503;28;20458;-75
2022/04/25 00:44:31;;;;;;;21.30;19.30;;;;;;;7.88;100.00;97731.75;2065772;28;20189;-75
2022/04/25 00:45:33;;;;;;;22.00;19.85;;;;;;;7.86;100.00;97737.38;2065435;28;20196;-75
2022/04/25 00:46:36;;;;;;;21.88;20.00;;;;;;;7.85;100.00;97730.53;2065755;28;20248;-75
2022/04/25 00:47:37;;;;;;;26.65;20.38;;;;;;;7.85;100.00;97725.22;2074193;28;20196;-75
2022/04/25 00:48:43;;;;;;;21.60;19.55;;;;;;;7.88;100.00;97732.53;2065383;28;20636;-75
2022/04/25 00:49:45;;;;;;;21.88;19.88;;;;;;;7.85;100.00;97735.84;2057943;28;20194;-75
2022/04/25 00:50:45;;;;;;;23.05;20.73;;;;;;;7.84;100.00;97739.59;2065549;28;20193;-75
2022/04/25 00:51:47;;;;;;;21.43;19.17;;;;;;;7.79;100.00;97734.41;2073873;28;20282;-75
2022/04/25 00:52:49;;;;;;;20.95;19.05;;;;;;;7.78;100.00;97737.38;2065418;28;20235;-75
2022/04/25 00:53:49;;;;;;;21.13;19.13;;;;;;;7.74;100.00;97736.44;2065513;28;20192;-75
2022/04/25 00:54:53;;;;;;;19.97;18.17;;;;;;;7.69;100.00;97740.00;2074270;28;20689;-75
2022/04/25 00:55:55;;;;;;;21.13;19.20;;;;;;;7.64;100.00;97746.25;2065019;28;20212;-74
2022/04/25 00:56:57;;;;;;;20.77;18.75;;;;;;;7.60;100.00;97742.66;2057545;28;20197;-74
2022/04/25 00:57:58;;;;;;;20.85;18.73;;;;;;;7.56;100.00;97746.25;2057488;28;20700;-75
2022/04/25 00:59:00;;;;;;;20.80;18.80;;;;;;;7.50;100.00;97742.94;2065447;28;20257;-75
2022/04/25 01:00:01;;;;;;;20.52;18.58;;;;;;;7.42;100.00;97742.91;2065326;28;20550;-75
2022/04/25 01:01:04;;;;;;;22.17;20.27;;;;;;;7.35;100.00;97746.78;2057400;28;20193;-74
2022/04/25 01:02:06;;;;;;;21.95;19.80;;;;;;;7.27;100.00;97736.91;2065919;28;20606;-75
2022/04/25 01:03:08;;;;;;;21.63;19.75;;;;;;;7.23;100.00;97738.63;2065047;28;20201;-75
2022/04/25 01:04:09;;;;;;;20.77;18.88;;;;;;;7.17;100.00;97742.50;2065683;28;20231;-75
2022/04/25 01:05:11;;;;;;;21.03;19.13;;;;;;;7.11;100.00;97738.41;2074104;28;20643;-75
2022/04/25 01:06:11;;;;;;;20.15;18.15;;;;;;;7.05;100.00;97742.28;2073678;28;21277;-75
2022/04/25 01:07:13;;;;;;;22.23;19.57;;;;;;;6.97;100.00;97738.50;2065372;28;20597;-75
2022/04/25 01:08:14;;;;;;;19.23;17.48;;;;;;;6.96;100.00;97733.53;2065496;28;20196;-75
2022/04/25 01:09:17;;;;;;;20.47;18.47;;;;;;;6.90;100.00;97738.16;2074332;28;20220;-75
2022/04/25 01:10:20;;;;;;;21.27;19.15;;;;;;;6.84;100.00;97736.72;2074070;28;20247;-75
2022/04/25 01:11:22;;;;;;;20.33;18.55;;;;;;;6.79;100.00;97742.16;2065226;28;20197;-75
2022/04/25 01:12:23;;;;;;;21.20;19.10;;;;;;;6.75;100.00;97741.97;2064972;28;20209;-74
2022/04/25 01:13:24;;;;;;;20.07;18.43;;;;;;;6.71;100.00;97745.53;2065427;28;20718;-74
2022/04/25 01:14:25;;;;;;;22.05;20.10;;;;;;;6.66;100.00;97743.78;2074293;28;20192;-75
2022/04/25 01:15:28;;;;;;;21.63;19.67;;;;;;;6.64;100.00;97745.19;2074084;28;20271;-75
2022/04/25 01:16:30;;;;;;;20.77;18.90;;;;;;;6.61;100.00;97749.22;2074240;28;20546;-75
2022/04/25 01:17:32;;;;;;;21.00;19.10;;;;;;;6.57;100.00;97740.28;2074051;28;20188;-75
2022/04/25 01:18:33;;;;;;;20.88;19.08;;;;;;;6.53;100.00;97738.56;2073962;28;20215;-75
2022/04/25 01:19:35;;;;;;;22.60;20.20;;;;;;;6.51;100.00;97742.31;2074270;28;20267;-75
2022/04/25 01:20:36;;;;;;;21.48;19.55;;;;;;;6.49;100.00;97739.16;2074034;28;20196;-75
2022/04/25 01:21:43;;;;;;;21.73;19.93;;;;;;;6.45;100.00;97738.19;2064782;28;20267;-75
2022/04/25 01:22:49;;;;;;;21.65;19.77;;;;;;;6.43;100.00;97744.88;2058233;28;20190;-75
2022/04/25 01:27:50;;;;;;;21.55;19.52;;;;;;;6.29;100.00;97739.63;2068130;28;20620;-75
2022/04/25 01:28:52;;;;;;;21.45;19.42;;;;;;;6.28;100.00;97734.63;2065211;28;20592;-75
2022/04/25 01:29:56;;;;;;;22.00;19.80;;;;;;;6.33;100.00;97739.81;2065471;28;20212;-75
2022/04/25 01:30:57;;;;;;;21.48;19.52;;;;;;;6.32;100.00;97743.53;2073863;28;20196;-75
2022/04/25 01:31:59;;;;;;;20.97;19.27;;;;;;;6.32;100.00;97744.31;2074138;28;20183;-75
2022/04/25 01:33:01;;;;;;;21.42;19.52;;;;;;;6.40;100.00;97743.59;2073939;28;20575;-75
2022/04/25 01:34:02;;;;;;;21.27;19.35;;;;;;;6.46;100.00;97747.72;2065224;28;20197;-75
2022/04/25 01:35:04;;;;;;;22.37;20.37;;;;;;;6.49;100.00;97746.31;2065375;28;20185;-75
2022/04/25 01:36:05;;;;;;;22.30;19.95;;;;;;;6.50;100.00;97747.88;2064683;28;20207;-75
2022/04/25 01:37:10;;;;;;;22.42;20.33;;;;;;;6.51;100.00;97744.94;2065760;28;20256;-75
2022/04/25 01:38:11;;;;;;;22.25;20.10;;;;;;;6.49;100.00;97748.97;2076588;28;20237;-75
2022/04/25 01:39:14;;;;;;;23.10;20.73;;;;;;;6.51;100.00;97746.78;2067848;28;20216;-75
2022/04/25 01:40:16;;;;;;;22.48;20.48;;;;;;;6.47;100.00;97740.53;2068161;28;20192;-75
2022/04/25 01:41:16;;;;;;;22.05;19.80;;;;;;;6.45;100.00;97743.50;2076737;28;20196;-75
2022/04/25 01:42:20;;;;;;;22.13;20.03;;;;;;;6.46;100.00;97749.56;2067583;28;20211;-75
2022/04/25 01:43:23;;;;;;;23.27;20.77;;;;;;;6.45;100.00;97745.38;2068320;28;20192;-75
2022/04/25 01:44:27;;;;;;;24.83;21.88;;;;;;;6.46;100.00;97733.69;2076707;28;20712;-75
2022/04/25 01:45:28;;;;;;;22.98;20.77;;;;;;;6.46;100.00;97737.13;2076605;28;20198;-75
2022/04/25 01:46:30;;;;;;;22.63;20.50;;;;;;;6.50;100.00;97739.94;2067373;28;20201;-75
2022/04/25 01:47:30;;;;;;;22.95;20.55;;;;;;;6.46;100.00;97734.47;2067939;28;20192;-75
2022/04/25 01:48:32;;;;;;;22.00;19.87;;;;;;;6.43;100.00;97742.25;2067770;28;20204;-75
2022/04/25 01:49:34;;;;;;;25.02;20.52;;;;;;;6.41;100.00;97736.44;2059951;28;20193;-75
2022/04/25 01:50:36;;;;;;;23.45;21.25;;;;;;;6.39;100.00;97744.69;2059914;28;20643;-75
2022/04/25 01:51:40;;;;;;;23.27;20.98;;;;;;;6.42;100.00;97740.66;2059540;28;20229;-75
2022/04/25 01:52:42;;;;;;;22.48;20.55;;;;;;;6.39;100.00;97738.63;2067813;28;20203;-75
2022/04/25 01:53:43;;;;;;;22.88;20.67;;;;;;;6.37;100.00;97746.09;2059805;28;20213;-75
2022/04/25 01:54:47;;;;;;;22.57;20.53;;;;;;;6.38;100.00;97742.34;2068088;28;20207;-75
2022/04/25 01:55:48;;;;;;;24.08;21.50;;;;;;;6.40;100.00;97748.91;2076563;28;20192;-75
2022/04/25 01:56:50;;;;;;;24.87;21.87;;;;;;;6.43;100.00;97763.44;2067824;28;20239;-76
2022/04/25 01:57:54;;;;;;;24.10;21.60;;;;;;;6.42;100.00;97748.59;2068418;28;20734;-76
2022/04/25 01:58:55;;;;;;;22.52;20.30;;;;;;;6.40;100.00;97748.13;2067664;28;20277;-76
2022/04/25 01:59:57;;;;;;;25.17;22.57;;;;;;;6.41;100.00;97742.53;2059837;28;20205;-76
2022/04/25 02:00:58;;;;;;;25.65;21.92;;;;;;;6.39;100.00;97750.00;2068016;28;20695;-75
2022/04/25 02:02:01;;;;;;;26.83;22.40;;;;;;;6.32;100.00;97743.53;2067783;28;20548;-75
2022/04/25 02:03:02;;;;;;;25.65;22.95;;;;;;;6.26;100.00;97742.88;2068182;28;20263;-76
2022/04/25 02:04:06;;;;;;;24.80;22.33;;;;;;;6.23;100.00;97740.81;2076826;28;20184;-75
2022/04/25 02:05:10;;;;;;;25.27;23.15;;;;;;;6.26;100.00;97744.75;2076555;28;20192;-76
2022/04/25 02:06:12;;;;;;;24.92;22.33;;;;;;;6.31;100.00;97747.28;2066390;28;20200;-75
2022/04/25 02:07:13;;;;;;;28.45;23.98;;;;;;;6.39;100.00;97744.69;2067938;28;20261;-76
2022/04/25 02:08:15;;;;;;;26.07;23.50;;;;;;;6.40;100.00;97742.81;2076693;28;20735;-76
2022/04/25 02:09:17;;;;;;;26.30;23.48;;;;;;;6.46;100.00;97749.56;2067772;28;20193;-76
2022/04/25 02:10:20;;;;;;;26.70;24.00;;;;;;;6.45;100.00;97742.72;2067730;28;20598;-76
2022/04/25 02:11:24;;;;;;;23.65;21.25;;;;;;;6.51;100.00;97741.50;2059845;28;20211;-76
2022/04/25 02:12:28;;;;;;;23.60;21.35;;;;;;;6.51;100.00;97742.31;2068323;28;20193;-76
2022/04/25 02:13:29;;;;;;;25.48;22.73;;;;;;;6.49;100.00;97741.00;2067749;28;20667;-75
2022/04/25 02:14:30;;;;;;;25.97;22.73;;;;;;;6.45;100.00;97735.53;2059728;28;20570;-75
2022/04/25 02:15:31;;;;;;;26.40;22.45;;;;;;;6.41;100.00;97741.75;2068090;28;20656;-75
2022/04/25 02:16:33;;;;;;;24.00;21.70;;;;;;;6.44;100.00;97730.56;2076839;28;20589;-75
2022/04/25 02:17:33;;;;;;;25.40;22.75;;;;;;;6.37;100.00;97743.44;2067813;28;20595;-75
2022/04/25 02:18:36;;;;;;;24.13;21.83;;;;;;;6.40;100.00;97735.66;2067761;28;20311;-75
2022/04/25 02:19:40;;;;;;;24.33;20.90;;;;;;;6.40;100.00;97740.16;2059790;28;20216;-75
2022/04/25 02:20:41;;;;;;;24.52;21.35;;;;;;;6.38;100.00;97743.13;2068132;28;20718;-75
2022/04/25 02:21:43;;;;;;;22.88;20.83;;;;;;;6.36;100.00;97744.53;2076010;28;20236;-75
2022/04/25 02:22:44;;;;;;;25.27;22.77;;;;;;;6.36;100.00;97750.59;2067711;28;20226;-75
2022/04/25 02:23:46;;;;;;;25.23;22.57;;;;;;;6.39;100.00;97749.22;2068023;28;20280;-75
2022/04/25 02:24:49;;;;;;;24.88;22.27;;;;;;;6.44;100.00;97744.59;2076503;28;20561;-75
2022/04/25 02:25:54;;;;;;;24.77;22.02;;;;;;;6.43;100.00;97742.25;2076622;28;20275;-75
2022/04/25 02:26:56;;;;;;;26.42;23.42;;;;;;;6.43;100.00;97734.28;2076596;28;20555;-75
2022/04/25 02:27:56;;;;;;;25.80;23.10;;;;;;;6.41;100.00;97741.75;2067748;28;20201;-76
2022/04/25 02:28:58;;;;;;;25.83;23.23;;;;;;;6.41;100.00;97741.75;2059663;28;20233;-75
2022/04/25 02:30:00;;;;;;;24.20;21.83;;;;;;;6.36;100.00;97740.00;2067963;28;20197;-75
2022/04/25 02:31:01;;;;;;;24.73;22.17;;;;;;;6.33;100.00;97737.94;2067537;28;20243;-75
2022/04/25 02:32:06;;;;;;;24.10;21.70;;;;;;;6.33;100.00;97747.75;2067823;28;20262;-75
2022/04/25 02:33:08;;;;;;;25.13;22.83;;;;;;;6.34;100.00;97749.31;2067271;28;20271;-75
2022/04/25 02:34:11;;;;;;;24.70;21.17;;;;;;;6.30;100.00;97746.50;2058920;28;20205;-75
2022/04/25 02:35:11;;;;;;;23.52;21.25;;;;;;;6.31;100.00;97749.91;2067771;28;20562;-76
2022/04/25 02:36:13;;;;;;;25.17;21.83;;;;;;;6.31;100.00;97749.91;2075381;28;20394;-75
2022/04/25 02:37:15;;;;;;;24.75;22.45;;;;;;;6.30;100.00;97748.34;2067784;28;20192;-76
2022/04/25 02:38:17;;;;;;;24.42;21.83;;;;;;;6.27;100.00;97744.44;2067889;28;20195;-75
2022/04/25 02:39:20;;;;;;;23.52;21.23;;;;;;;6.30;100.00;97751.00;2076542;28;20215;-75
2022/04/25 02:40:23;;;;;;;23.05;20.70;;;;;;;6.26;100.00;97758.78;2076581;28;20580;-75
2022/04/25 02:41:26;;;;;;;24.35;21.88;;;;;;;6.24;100.00;97763.56;2067663;28;20197;-75
2022/04/25 02:42:26;;;;;;;23.38;21.02;;;;;;;6.27;100.00;97765.66;2067958;28;20196;-75
2022/04/25 02:43:28;;;;;;;24.20;21.60;;;;;;;6.27;100.00;97763.00;2076356;28;20275;-75
2022/04/25 02:44:29;;;;;;;24.67;22.23;;;;;;;6.29;100.00;97766.13;2076466;28;20200;-75
2022/04/25 02:45:31;;;;;;;24.93;22.53;;;;;;;6.33;100.00;97761.00;2067636;28;20197;-75
2022/04/25 02:46:34;;;;;;;24.70;22.15;;;;;;;6.33;100.00;97768.94;2067835;28;20220;-74
2022/04/25 02:47:36;;;;;;;26.38;21.80;;;;;;;6.38;100.00;97771.50;2076165;28;20295;-75
2022/04/25 02:48:38;;;;;;;22.60;20.33;;;;;;;6.39;100.00;97765.09;2067628;28;20260;-75
2022/04/25 02:49:39;;;;;;;23.98;21.52;;;;;;;6.40;100.00;97761.38;2065614;28;20196;-75
2022/04/25 02:50:40;;;;;;;24.73;22.30;;;;;;;6.39;100.00;97768.53;2066524;28;20193;-75
2022/04/25 02:51:44;;;;;;;32.87;25.90;;;;;;;6.47;100.00;97772.34;2065999;28;20319;-75
2022/04/25 02:52:45;;;;;;;32.67;24.90;;;;;;;6.52;100.00;97772.22;2066682;28;20652;-75
2022/04/25 02:53:48;;;;;;;32.42;26.27;;;;;;;6.66;100.00;97769.50;2065973;28;20660;-75
2022/04/25 02:54:51;;;;;;;26.75;24.10;;;;;;;6.77;100.00;97773.47;2066880;28;20227;-75
2022/04/25 02:55:54;;;;;;;26.30;23.48;;;;;;;6.81;100.00;97777.09;2075157;28;20184;-75
2022/04/25 02:56:57;;;;;;;28.13;23.85;;;;;;;6.87;100.00;97775.09;2066271;28;20207;-76
2022/04/25 02:57:58;;;;;;;26.65;23.75;;;;;;;6.90;100.00;97779.78;2066602;28;20193;-75
2022/04/25 02:58:59;;;;;;;24.27;21.87;;;;;;;6.92;100.00;97777.63;2075111;28;20709;-75
2022/04/25 03:00:05;;;;;;;22.83;20.63;;;;;;;6.91;100.00;97782.13;2065970;28;20284;-75
2022/04/25 03:01:09;;;;;;;22.75;20.55;;;;;;;6.92;100.00;97786.34;2067245;28;20181;-75
2022/04/25 03:02:11;;;;;;;23.05;20.67;;;;;;;6.88;100.00;97788.06;2075264;28;20223;-75
2022/04/25 03:03:12;;;;;;;23.15;20.92;;;;;;;6.87;100.00;97785.72;2074990;28;20238;-75
2022/04/25 03:04:14;;;;;;;23.45;20.95;;;;;;;6.85;100.00;97782.56;2075112;28;20283;-75
2022/04/25 03:05:16;;;;;;;21.63;19.52;;;;;;;6.80;100.00;97780.84;2075190;28;20193;-75
2022/04/25 03:06:18;;;;;;;20.73;18.95;;;;;;;6.78;100.00;97783.00;2065377;28;20224;-75
2022/04/25 03:07:19;;;;;;;22.20;19.73;;;;;;;6.79;100.00;97784.56;2058117;28;20347;-75
2022/04/25 03:08:23;;;;;;;20.23;18.53;;;;;;;6.74;100.00;97782.81;2058189;28;20686;-75
2022/04/25 03:09:26;;;;;;;21.27;19.02;;;;;;;6.74;100.00;97782.03;2065754;28;20638;-75
2022/04/25 03:10:28;;;;;;;20.58;18.60;;;;;;;6.70;100.00;97776.56;2066532;28;20192;-75
2022/04/25 03:11:29;;;;;;;23.83;20.00;;;;;;;6.70;100.00;97781.88;2065967;28;20208;-75
2022/04/25 03:12:38;;;;;;;21.25;19.35;;;;;;;6.67;100.00;97782.44;2058138;28;20604;-75
2022/04/25 03:13:42;;;;;;;20.17;18.38;;;;;;;6.66;100.00;97778.22;2059235;28;20217;-74
2022/04/25 03:14:45;;;;;;;21.20;19.20;;;;;;;6.65;100.00;97773.25;2058301;28;20216;-75
2022/04/25 03:15:47;;;;;;;22.23;19.95;;;;;;;6.60;100.00;97771.47;2057340;28;20197;-75
2022/04/25 03:16:49;;;;;;;21.55;19.42;;;;;;;6.59;100.00;97774.44;2066505;28;20196;-75
2022/04/25 03:17:51;;;;;;;20.95;18.85;;;;;;;6.62;100.00;97784.44;2066136;28;20228;-75
2022/04/25 03:18:53;;;;;;;20.55;18.60;;;;;;;6.66;100.00;97777.44;2066528;28;20201;-75
2022/04/25 03:19:55;;;;;;;20.65;18.75;;;;;;;6.68;100.00;97783.22;2066063;28;20221;-74
2022/04/25 03:20:58;;;;;;;19.95;17.98;;;;;;;6.66;100.00;97786.19;2065737;28;20193;-74
2022/04/25 03:22:01;;;;;;;18.73;17.13;;;;;;;6.64;100.00;97775.09;2066118;28;20212;-74
2022/04/25 03:23:05;;;;;;;21.27;19.17;;;;;;;6.62;100.00;97785.22;2066507;28;20655;-75
2022/04/25 03:24:06;;;;;;;21.00;19.00;;;;;;;6.62;100.00;97789.75;2065567;28;20235;-75
2022/04/25 03:25:08;;;;;;;20.83;18.93;;;;;;;6.62;100.00;97790.53;2058132;28;20198;-75
2022/04/25 03:26:09;;;;;;;21.13;19.10;;;;;;;6.67;100.00;97781.66;2058151;28;20201;-75
2022/04/25 03:27:11;;;;;;;21.00;19.03;;;;;;;6.69;100.00;97790.09;2066308;28;20209;-75
2022/04/25 03:28:14;;;;;;;23.05;19.58;;;;;;;6.68;100.00;97788.53;2074826;28;20192;-75
2022/04/25 03:29:17;;;;;;;21.88;19.55;;;;;;;6.72;100.00;97792.94;2075017;28;20184;-75
2022/04/25 03:30:18;;;;;;;20.48;18.58;;;;;;;6.75;100.00;97792.31;2074830;28;20196;-75
2022/04/25 03:31:20;;;;;;;20.63;18.80;;;;;;;6.79;100.00;97790.66;2074729;28;20232;-75
2022/04/25 03:32:22;;;;;;;20.35;18.30;;;;;;;6.78;100.00;97789.09;2075007;28;20860;-74
2022/04/25 03:33:24;;;;;;;24.63;19.45;;;;;;;6.77;100.00;97787.50;2066018;28;20197;-75
2022/04/25 03:34:28;;;;;;;21.85;19.52;;;;;;;6.69;100.00;97767.06;2066242;28;20247;-75
2022/04/25 03:35:32;;;;;;;21.52;19.35;;;;;;;6.74;100.00;97780.16;2066016;28;20296;-75
2022/04/25 03:36:34;;;;;;;23.83;20.15;;;;;;;6.73;100.00;97786.56;2066127;28;20655;-74
2022/04/25 03:37:37;;;;;;;23.63;20.77;;;;;;;6.75;100.00;97771.13;2065999;28;20201;-75
2022/04/25 03:38:42;;;;;;;22.17;20.00;;;;;;;6.77;100.00;97770.81;2058762;28;20967;-75
2022/04/25 03:39:43;;;;;;;22.40;20.20;;;;;;;6.75;100.00;97780.94;2066333;28;20260;-74
2022/04/25 03:40:44;;;;;;;21.23;19.20;;;;;;;6.75;100.00;97779.06;2074729;28;20196;-75
2022/04/25 03:41:47;;;;;;;21.63;19.50;;;;;;;6.77;100.00;97776.13;2074940;28;20204;-74
2022/04/25 03:42:49;;;;;;;21.73;19.58;;;;;;;6.80;100.00;97780.84;2074799;28;20195;-75
2022/04/25 03:43:52;;;;;;;21.42;19.33;;;;;;;6.84;100.00;97781.00;2065896;28;20205;-75
2022/04/25 03:44:56;;;;;;;22.75;20.50;;;;;;;6.86;100.00;97789.44;2066269;28;20192;-74
2022/04/25 03:45:57;;;;;;;22.65;20.33;;;;;;;6.86;100.00;97781.47;2074887;28;20659;-75
2022/04/25 03:46:59;;;;;;;22.30;20.00;;;;;;;6.88;100.00;97782.75;2074919;28;20587;-75
2022/04/25 03:48:00;;;;;;;23.50;21.20;;;;;;;6.91;100.00;97773.41;2065990;28;20208;-74
2022/04/25 03:49:02;;;;;;;24.27;21.73;;;;;;;6.93;100.00;97781.84;2057868;28;20289;-75
2022/04/25 03:50:04;;;;;;;26.20;21.63;;;;;;;6.99;100.00;97788.59;2057593;28;20208;-74
2022/04/25 03:51:07;;;;;;;24.08;21.70;;;;;;;6.97;100.00;97780.94;2065547;28;20200;-75
2022/04/25 03:52:09;;;;;;;25.85;23.23;;;;;;;7.01;100.00;97776.56;2074896;28;20260;-75
2022/04/25 03:53:14;;;;;;;24.67;22.15;;;;;;;7.02;100.00;97780.00;2074637;28;20201;-74
2022/04/25 03:57:09;;;;;;;23.88;21.48;;;;;;;6.98;100.00;97779.06;2074604;28;20200;-75
2022/04/25 03:57:12;;;;;;;25.50;22.90;;;;;;;7.02;100.00;97778.16;2065876;28;20612;-74
2022/04/25 03:58:14;;;;;;;25.40;22.50;;;;;;;7.15;100.00;97792.41;2068286;28;20181;-74
2022/04/25 03:59:19;;;;;;;25.35;22.52;;;;;;;7.24;100.00;97790.59;2065453;28;20212;-74
2022/04/25 04:00:21;;;;;;;24.92;22.25;;;;;;;7.27;100.00;97795.28;2066618;28;20281;-74
2022/04/25 04:01:22;;;;;;;25.83;23.10;;;;;;;7.32;100.00;97803.13;2073604;28;20189;-75
2022/04/25 04:02:24;;;;;;;25.83;22.58;;;;;;;7.42;100.00;97793.31;2074673;28;20196;-74
2022/04/25 04:03:26;;;;;;;25.30;22.58;;;;;;;7.48;100.00;97800.84;2074555;28;20184;-74
2022/04/25 04:04:27;;;;;;;24.77;21.80;;;;;;;7.54;100.00;97798.81;2065793;28;20280;-74
2022/04/25 04:05:30;;;;;;;24.03;21.57;;;;;;;7.55;100.00;97792.41;2057837;28;20242;-75
2022/04/25 04:06:32;;;;;;;24.63;22.17;;;;;;;7.56;100.00;97796.66;2057750;28;20241;-74
2022/04/25 04:07:33;;;;;;;24.37;21.87;;;;;;;7.57;100.00;97790.28;2065866;28;20675;-75
2022/04/25 04:08:34;;;;;;;25.98;22.33;;;;;;;7.60;100.00;97793.06;2074533;28;20423;-74
2022/04/25 04:09:49;;;;;;;24.97;22.37;;;;;;;7.62;100.00;97790.13;2065777;28;20675;-74
2022/04/25 04:10:53;;;;;;;25.10;22.48;;;;;;;7.66;100.00;97791.06;2068031;28;20180;-75
2022/04/25 04:11:54;;;;;;;24.13;21.73;;;;;;;7.66;100.00;97791.06;2074496;28;20224;-75
2022/04/25 04:12:56;;;;;;;23.67;21.27;;;;;;;7.63;100.00;97786.38;2065645;28;20201;-75
2022/04/25 04:13:58;;;;;;;23.35;20.88;;;;;;;7.64;100.00;97787.94;2065905;28;20678;-74
2022/04/25 04:15:03;;;;;;;23.63;21.10;;;;;;;7.63;100.00;97797.75;2065330;28;20631;-74
2022/04/25 04:16:05;;;;;;;24.98;20.38;;;;;;;7.66;100.00;97796.38;2066422;28;20270;-74
2022/04/25 04:17:07;;;;;;;24.60;21.60;;;;;;;7.63;100.00;97796.97;2074516;28;20188;-74
2022/04/25 04:18:09;;;;;;;24.50;21.92;;;;;;;7.59;100.00;97799.47;2074655;28;20188;-74
2022/04/25 04:19:10;;;;;;;24.35;21.85;;;;;;;7.60;100.00;97797.59;2074550;28;20196;-74
2022/04/25 04:20:15;;;;;;;24.63;22.17;;;;;;;7.65;100.00;97800.13;2074390;28;20235;-74
2022/04/25 04:21:17;;;;;;;25.92;23.20;;;;;;;7.69;100.00;97805.59;2065134;28;20236;-74
2022/04/25 04:22:21;;;;;;;25.02;22.33;;;;;;;7.73;100.00;97804.69;2057281;28;20202;-74
2022/04/25 04:23:23;;;;;;;24.65;22.17;;;;;;;7.75;100.00;97807.81;2057999;28;20208;-74
2022/04/25 04:24:25;;;;;;;24.95;22.20;;;;;;;7.80;100.00;97807.66;2057836;28;20560;-74
2022/04/25 04:25:27;;;;;;;23.52;21.35;;;;;;;7.82;100.00;97808.16;2066094;28;20196;-74
2022/04/25 04:26:29;;;;;;;24.45;22.02;;;;;;;7.86;100.00;97810.97;2065675;28;20200;-74
2022/04/25 04:27:31;;;;;;;25.55;22.73;;;;;;;7.89;100.00;97811.13;2065605;28;20233;-74
2022/04/25 04:28:34;;;;;;;25.30;22.60;;;;;;;7.88;100.00;97806.91;2065910;28;20185;-74
2022/04/25 04:29:35;;;;;;;26.17;23.52;;;;;;;7.89;100.00;97813.78;2065659;28;20232;-75
2022/04/25 04:30:38;;;;;;;25.30;22.60;;;;;;;7.91;100.00;97818.78;2057581;28;20205;-74
2022/04/25 04:31:39;;;;;;;25.00;22.63;;;;;;;7.93;100.00;97817.38;2065671;28;20232;-74
2022/04/25 04:32:42;;;;;;;25.83;23.15;;;;;;;7.96;100.00;97812.53;2074438;28;20192;-75
2022/04/25 04:33:43;;;;;;;25.67;23.13;;;;;;;7.94;100.00;97813.63;2065626;28;20197;-75
2022/04/25 04:34:45;;;;;;;26.73;23.90;;;;;;;8.00;100.00;97816.16;2065718;28;20189;-74
2022/04/25 04:37:06;;;;;;;30.02;24.90;;;;;;;8.08;100.00;97826.00;2068210;28;20596;-75
2022/04/25 04:38:07;;;;;;;27.30;24.50;;;;;;;8.07;100.00;97821.78;2074519;28;20246;-75
2022/04/25 04:39:09;;;;;;;28.93;25.37;;;;;;;8.09;100.00;97827.59;2074348;28;20188;-75
2022/04/25 04:40:30;;;;;;;28.55;25.55;;;;;;;8.12;100.00;97826.97;2065062;28;20307;-75
2022/04/25 04:41:33;;;;;;;28.20;25.13;;;;;;;8.18;100.00;97831.03;2068897;28;20194;-75
2022/04/25 04:42:35;;;;;;;33.58;27.95;;;;;;;8.21;100.00;97838.38;2074372;28;20671;-75
2022/04/25 04:43:37;;;;;;;30.80;27.60;;;;;;;8.27;100.00;97837.16;2074274;28;20191;-75
2022/04/25 04:44:38;;;;;;;31.30;27.80;;;;;;;8.31;100.00;97837.28;2065547;28;20683;-75
2022/04/25 04:45:43;;;;;;;34.75;28.33;;;;;;;8.35;100.00;97838.28;2065693;28;20193;-75
2022/04/25 04:46:47;;;;;;;35.22;26.67;;;;;;;8.39;100.00;97836.56;2074220;28;20226;-75
2022/04/25 04:47:49;;;;;;;30.10;26.90;;;;;;;8.44;100.00;97836.41;2065384;28;20193;-75
2022/04/25 04:48:51;;;;;;;34.72;27.52;;;;;;;8.46;100.00;97836.88;2065592;28;20209;-75
2022/04/25 04:49:57;;;;;;;34.47;28.30;;;;;;;8.53;100.00;97844.41;2074300;28;20223;-75
2022/04/25 04:51:00;;;;;;;31.58;27.60;;;;;;;8.52;100.00;97842.84;2064136;28;20205;-75
2022/04/25 04:52:01;;;;;;;32.15;27.55;;;;;;;8.57;100.00;97845.31;2065796;28;20549;-75
2022/04/25 04:53:02;;;;;;;31.70;28.30;;;;;;;8.54;100.00;97838.00;2065307;28;20300;-75